Time;durP1;ratioP1;P1;durP2;ratioP2;P2;SDS_P1;SDS_P2;PMS_P1;PMS_P2;Temp;Humidity;BMP_temperature;BMP_pressure;BME280_temperature;BME280_humidity;BME280_pressure;Samples;Min_cycle;Max_cycle;Signal;HPM_P1;HPM_P2
2023/06/06 00:02:21;;;;;;;12.25;6.55;;;12.90;90.80;;;;;;5036624;28;20029;-68
2023/06/06 00:04:52;;;;;;;11.10;5.85;;;12.80;90.50;;;;;;5042729;28;20138;-68
2023/06/06 00:07:18;;;;;;;;;;;12.70;91.00;;;;;;5041622;28;20036;-69
2023/06/06 00:09:43;;;;;;;8.70;5.50;;;12.80;91.60;;;;;;5042499;28;19929;-69
2023/06/06 00:12:12;;;;;;;10.38;5.78;;;12.70;91.50;;;;;;5039600;28;20055;-69
2023/06/06 00:14:42;;;;;;;16.77;6.97;;;12.60;91.50;;;;;;5043807;28;20104;-69
2023/06/06 00:17:08;;;;;;;14.70;6.50;;;12.60;91.30;;;;;;5043453;28;20029;-69
2023/06/06 00:19:35;;;;;;;13.10;6.80;;;12.60;91.80;;;;;;5044050;28;20112;-68
2023/06/06 00:22:01;;;;;;;10.13;6.15;;;12.60;91.60;;;;;;5036305;28;20402;-70
2023/06/06 00:24:27;;;;;;;11.52;6.25;;;12.50;91.50;;;;;;5043382;28;20021;-70
2023/06/06 00:26:52;;;;;;;14.43;6.25;;;12.50;91.30;;;;;;5025244;28;20031;-70
2023/06/06 00:29:18;;;;;;;10.50;6.00;;;12.50;91.40;;;;;;5041037;28;20108;-68
2023/06/06 00:31:43;;;;;;;10.20;5.57;;;12.50;91.80;;;;;;5040457;28;20044;-71
2023/06/06 00:34:08;;;;;;;12.50;6.50;;;12.50;92.00;;;;;;5045302;28;20116;-69
2023/06/06 00:36:34;;;;;;;11.88;6.90;;;12.40;91.90;;;;;;5043337;28;20028;-70
2023/06/06 00:39:00;;;;;;;11.85;6.32;;;12.30;91.70;;;;;;5041469;28;20035;-68
2023/06/06 00:41:25;;;;;;;10.70;5.97;;;12.30;91.90;;;;;;5039632;28;20114;-69
2023/06/06 00:43:51;;;;;;;16.35;7.22;;;12.30;91.90;;;;;;5028879;28;20025;-70
2023/06/06 00:46:17;;;;;;;13.27;7.28;;;12.20;92.40;;;;;;5029866;28;20049;-69
2023/06/06 00:48:43;;;;;;;14.70;7.90;;;12.30;92.80;;;;;;5042667;28;20096;-70
2023/06/06 00:51:10;;;;;;;14.50;7.63;;;12.20;92.60;;;;;;5047291;28;20029;-68
2023/06/06 00:53:36;;;;;;;16.13;6.75;;;12.20;92.90;;;;;;5047194;28;20029;-68
2023/06/06 00:56:02;;;;;;;12.10;7.32;;;12.20;92.80;;;;;;5055575;28;20017;-69
2023/06/06 00:58:30;;;;;;;14.55;6.53;;;12.10;92.60;;;;;;5044478;28;20144;-69
2023/06/06 01:00:56;;;;;;;11.82;6.75;;;12.10;92.60;;;;;;5030315;28;20029;-69
2023/06/06 01:03:24;;;;;;;14.20;7.30;;;12.10;92.50;;;;;;5046649;28;20458;-68
2023/06/06 01:05:53;;;;;;;10.95;6.97;;;12.00;92.90;;;;;;5039368;28;20043;-68
2023/06/06 01:08:19;;;;;;;13.85;7.70;;;12.00;93.30;;;;;;5041190;28;20028;-68
2023/06/06 01:10:45;;;;;;;16.60;7.80;;;12.00;93.30;;;;;;5040711;28;20095;-69
2023/06/06 01:13:26;;;;;;;12.70;8.18;;;11.90;93.30;;;;;;5050473;28;20032;-71
2023/06/06 01:16:01;;;;;;;13.25;7.32;;;11.90;93.50;;;;;;5023879;28;20025;-69
2023/06/06 01:18:27;;;;;;;13.65;6.95;;;11.90;93.20;;;;;;5047634;28;20077;-68
2023/06/06 01:20:53;;;;;;;13.27;7.47;;;11.80;93.40;;;;;;5048497;28;20085;-69
2023/06/06 01:23:19;;;;;;;14.45;7.78;;;11.80;93.60;;;;;;5050733;28;20033;-69
2023/06/06 01:25:48;;;;;;;12.60;7.35;;;11.80;93.80;;;;;;5024882;28;20409;-69
2023/06/06 01:28:15;;;;;;;16.10;8.27;;;11.80;93.80;;;;;;5053870;28;20393;-68
2023/06/06 01:30:42;;;;;;;13.63;8.27;;;11.70;93.80;;;;;;5026965;28;20041;-69
2023/06/06 01:33:11;;;;;;;13.02;8.00;;;11.70;93.90;;;;;;5029887;28;20477;-70
2023/06/06 01:35:48;;;;;;;15.05;7.60;;;11.70;93.80;;;;;;5030014;28;20038;-69
2023/06/06 01:38:20;;;;;;;18.75;8.07;;;11.60;93.90;;;;;;5043912;28;20029;-69
2023/06/06 01:40:49;;;;;;;11.35;7.75;;;11.60;93.80;;;;;;5042398;28;20353;-69
2023/06/06 01:43:16;;;;;;;14.90;8.75;;;11.50;93.90;;;;;;5044893;28;20033;-69
2023/06/06 01:45:43;;;;;;;15.15;8.25;;;11.50;93.90;;;;;;5045856;28;20043;-69
2023/06/06 01:48:09;;;;;;;18.25;8.68;;;11.50;93.90;;;;;;5042636;28;20040;-68
2023/06/06 01:50:35;;;;;;;14.80;8.13;;;11.50;94.10;;;;;;5032029;28;20024;-70
2023/06/06 01:53:00;;;;;;;16.60;8.90;;;11.40;93.80;;;;;;5041901;28;20414;-68
2023/06/06 01:55:26;;;;;;;14.40;8.50;;;11.40;93.70;;;;;;5041158;28;20056;-70
2023/06/06 01:57:51;;;;;;;13.57;8.70;;;11.30;93.80;;;;;;5042044;28;20132;-68
2023/06/06 02:00:18;;;;;;;16.50;8.77;;;11.30;93.80;;;;;;5037057;28;20541;-69
2023/06/06 02:02:43;;;;;;;14.48;8.93;;;11.30;93.90;;;;;;5035273;28;20132;-68
2023/06/06 02:05:09;;;;;;;16.17;8.50;;;11.30;94.10;;;;;;5029275;28;20100;-69
2023/06/06 02:07:37;;;;;;;14.57;9.20;;;11.20;94.00;;;;;;5047264;28;20369;-69
2023/06/06 02:10:04;;;;;;;16.00;9.25;;;11.20;94.10;;;;;;5039015;28;20040;-68
2023/06/06 02:12:30;;;;;;;18.33;8.98;;;11.20;94.30;;;;;;5047302;28;20452;-71
2023/06/06 02:14:55;;;;;;;15.88;8.88;;;11.10;94.30;;;;;;5047748;28;20041;-70
2023/06/06 02:17:21;;;;;;;15.10;8.15;;;11.10;94.40;;;;;;5050478;28;20144;-68
2023/06/06 02:19:47;;;;;;;20.20;9.95;;;11.10;94.50;;;;;;5030109;28;20062;-68
2023/06/06 02:22:13;;;;;;;16.30;9.20;;;11.10;94.70;;;;;;5026338;28;20406;-68
2023/06/06 02:24:40;;;;;;;20.08;9.30;;;11.10;94.50;;;;;;5052121;28;20016;-69
2023/06/06 02:27:09;;;;;;;15.70;9.38;;;11.00;94.50;;;;;;5045621;28;20103;-68
2023/06/06 02:29:35;;;;;;;19.92;10.07;;;11.00;94.40;;;;;;5049751;28;20425;-69
2023/06/06 02:32:01;;;;;;;18.02;10.30;;;11.00;94.50;;;;;;5043394;28;20041;-68
2023/06/06 02:34:27;;;;;;;18.50;10.70;;;11.00;94.70;;;;;;5045210;28;20129;-69
2023/06/06 02:36:53;;;;;;;18.50;10.73;;;10.90;94.90;;;;;;5042480;28;20214;-69
2023/06/06 02:39:20;;;;;;;19.98;9.80;;;10.90;95.00;;;;;;5043432;28;20412;-69
2023/06/06 02:41:45;;;;;;;16.02;9.35;;;10.90;95.00;;;;;;5041901;28;20025;-68
2023/06/06 02:44:11;;;;;;;19.00;10.48;;;10.80;95.00;;;;;;5044764;28;20485;-68
2023/06/06 02:46:36;;;;;;;17.70;10.52;;;10.80;95.30;;;;;;5041714;28;20051;-69
2023/06/06 02:49:02;;;;;;;24.30;10.68;;;10.80;95.20;;;;;;5045257;28;20052;-68
2023/06/06 02:51:27;;;;;;;19.75;9.63;;;10.80;95.20;;;;;;5045676;28;20037;-69
2023/06/06 02:53:53;;;;;;;22.85;11.43;;;10.70;95.30;;;;;;5042200;28;20058;-68
2023/06/06 02:56:19;;;;;;;18.70;10.13;;;10.80;95.30;;;;;;5026105;28;20418;-69
2023/06/06 02:58:44;;;;;;;20.88;10.85;;;10.80;95.20;;;;;;5024291;28;20131;-69
2023/06/06 03:01:13;;;;;;;19.50;11.13;;;10.70;95.20;;;;;;5039622;28;20082;-70
2023/06/06 03:03:39;;;;;;;25.73;11.30;;;10.70;95.50;;;;;;5044824;28;20073;-68
2023/06/06 03:06:06;;;;;;;19.00;11.02;;;10.70;95.40;;;;;;5024582;28;20101;-69
2023/06/06 03:08:38;;;;;;;19.65;11.55;;;10.70;95.30;;;;;;5042670;28;20053;-69
2023/06/06 03:11:03;;;;;;;20.75;11.82;;;10.70;95.30;;;;;;5029190;28;20065;-69
2023/06/06 03:13:29;;;;;;;20.20;11.27;;;10.60;95.20;;;;;;5044075;28;20208;-68
2023/06/06 03:15:54;;;;;;;19.73;11.40;;;10.60;95.20;;;;;;5034993;28;20022;-68
2023/06/06 03:18:20;;;;;;;22.27;11.13;;;10.70;95.20;;;;;;5040331;28;20037;-69
2023/06/06 03:20:48;;;;;;;21.80;11.13;;;10.60;95.30;;;;;;5050344;28;20655;-69
2023/06/06 03:23:13;;;;;;;21.90;11.57;;;10.60;95.40;;;;;;5049125;28;20148;-69
2023/06/06 03:25:40;;;;;;;22.48;11.90;;;10.60;95.50;;;;;;5042935;28;20128;-69
2023/06/06 03:28:06;;;;;;;21.90;11.18;;;10.60;95.50;;;;;;5037183;28;20065;-70
2023/06/06 03:30:31;;;;;;;23.67;12.55;;;10.60;95.60;;;;;;5025676;28;20072;-70
2023/06/06 03:32:57;;;;;;;20.48;12.02;;;10.60;95.60;;;;;;5019316;28;20040;-70
2023/06/06 03:35:23;;;;;;;24.73;11.55;;;10.70;95.50;;;;;;5040358;28;20020;-68
2023/06/06 03:37:48;;;;;;;27.00;12.77;;;10.60;95.50;;;;;;5040003;28;20087;-67
2023/06/06 03:40:14;;;;;;;19.63;11.30;;;10.70;95.50;;;;;;5035921;28;20204;-68
2023/06/06 03:42:39;;;;;;;21.90;11.98;;;10.70;95.50;;;;;;5044741;28;20330;-71
2023/06/06 03:45:05;;;;;;;22.23;12.02;;;10.70;95.70;;;;;;5042473;28;20572;-70
2023/06/06 03:47:31;;;;;;;22.25;11.85;;;10.70;95.60;;;;;;5040784;28;20084;-69
2023/06/06 03:49:56;;;;;;;23.60;12.30;;;10.80;95.70;;;;;;5039706;28;20044;-70
2023/06/06 03:52:22;;;;;;;21.60;12.63;;;10.80;95.70;;;;;;5040243;28;20071;-69
2023/06/06 03:54:48;;;;;;;23.33;12.10;;;10.80;95.80;;;;;;5028753;28;20187;-70
2023/06/06 03:57:13;;;;;;;25.38;13.18;;;10.80;95.80;;;;;;5022134;28;20138;-69
2023/06/06 03:59:39;;;;;;;24.35;12.80;;;10.90;95.90;;;;;;5017811;28;20041;-70
2023/06/06 04:02:05;;;;;;;21.15;12.82;;;10.80;95.80;;;;;;5019547;28;20509;-70
2023/06/06 04:04:32;;;;;;;21.17;12.10;;;10.80;95.80;;;;;;5026095;28;20113;-69
2023/06/06 04:06:58;;;;;;;24.15;12.55;;;10.90;95.90;;;;;;5017259;28;20458;-69
2023/06/06 04:09:24;;;;;;;22.88;12.95;;;11.00;96.00;;;;;;5018249;28;20110;-70
2023/06/06 04:11:49;;;;;;;23.40;12.93;;;11.00;96.00;;;;;;5024265;28;20338;-69
2023/06/06 04:14:15;;;;;;;28.42;12.73;;;11.00;96.10;;;;;;5021949;28;20041;-69
2023/06/06 04:16:40;;;;;;;23.83;13.48;;;11.00;95.90;;;;;;5021811;28;20040;-71
2023/06/06 04:19:06;;;;;;;25.75;13.70;;;11.10;96.00;;;;;;5017275;28;20049;-70
2023/06/06 04:21:32;;;;;;;25.98;12.65;;;11.10;96.00;;;;;;5026150;28;20489;-72
2023/06/06 04:23:59;;;;;;;25.77;13.68;;;11.20;96.10;;;;;;5025583;28;20093;-69
2023/06/06 04:26:26;;;;;;;21.98;13.00;;;11.20;96.00;;;;;;5028640;28;20026;-70
2023/06/06 04:28:58;;;;;;;23.25;13.35;;;11.20;96.00;;;;;;5022469;28;20111;-69
2023/06/06 04:31:24;;;;;;;27.92;13.30;;;11.30;95.90;;;;;;5020835;28;20398;-69
2023/06/06 04:33:53;;;;;;;23.05;12.77;;;11.30;95.90;;;;;;5023598;28;20414;-72
2023/06/06 04:36:24;;;;;;;21.20;13.20;;;11.40;95.80;;;;;;5026218;28;20018;-73
2023/06/06 04:38:51;;;;;;;23.40;13.00;;;11.50;95.80;;;;;;5024941;28;20168;-71
2023/06/06 04:41:17;;;;;;;24.13;13.05;;;11.50;95.80;;;;;;5018461;28;20097;-71
2023/06/06 04:43:49;;;;;;;22.95;12.30;;;11.50;95.70;;;;;;5028059;28;20461;-71
2023/06/06 04:46:21;;;;;;;23.77;12.73;;;11.60;95.60;;;;;;5021394;28;20036;-72
2023/06/06 04:48:53;;;;;;;20.80;13.02;;;11.70;95.70;;;;;;5028372;28;20029;-70
2023/06/06 04:51:33;;;;;;;21.38;12.65;;;11.70;95.70;;;;;;5022236;28;20037;-70
2023/06/06 04:53:59;;;;;;;18.58;12.05;;;11.80;95.70;;;;;;5028024;28;20040;-71
2023/06/06 04:56:28;;;;;;;22.65;12.80;;;11.90;95.70;;;;;;5030611;28;20659;-72
2023/06/06 04:58:54;;;;;;;24.25;13.23;;;12.00;95.70;;;;;;5045596;28;20555;-71
2023/06/06 05:01:20;;;;;;;21.45;12.65;;;12.00;95.50;;;;;;5042634;28;20036;-71
2023/06/06 05:03:46;;;;;;;23.92;12.80;;;12.10;95.40;;;;;;5044860;28;20068;-71
2023/06/06 05:06:12;;;;;;;25.63;12.68;;;12.10;95.30;;;;;;5044226;28;20057;-70
2023/06/06 05:08:41;;;;;;;19.13;11.50;;;12.20;95.20;;;;;;5035299;28;20029;-69
2023/06/06 05:11:07;;;;;;;17.35;11.68;;;12.30;95.00;;;;;;5021104;28;20686;-68
2023/06/06 05:13:34;;;;;;;22.73;11.93;;;12.30;95.00;;;;;;5044638;28;20385;-69
2023/06/06 05:16:00;;;;;;;21.98;11.88;;;12.50;94.90;;;;;;5045886;28;20024;-69
2023/06/06 05:18:25;;;;;;;16.58;11.45;;;12.60;94.70;;;;;;5042552;28;20029;-70
2023/06/06 05:20:51;;;;;;;19.73;11.55;;;12.70;94.50;;;;;;5048097;28;20036;-69
2023/06/06 05:23:17;;;;;;;21.52;11.13;;;12.80;94.40;;;;;;5042031;28;20326;-69
2023/06/06 05:25:42;;;;;;;19.85;12.27;;;12.90;94.10;;;;;;5046307;28;20261;-69
2023/06/06 05:28:11;;;;;;;19.15;11.32;;;13.00;94.00;;;;;;5047510;28;20084;-70
2023/06/06 05:30:36;;;;;;;23.50;10.98;;;13.10;93.60;;;;;;5041457;28;20063;-70
2023/06/06 05:33:02;;;;;;;20.73;11.15;;;13.20;93.50;;;;;;5039122;28;20431;-71
2023/06/06 05:35:27;;;;;;;18.48;11.38;;;13.30;93.10;;;;;;5043000;28;20096;-71
2023/06/06 05:37:53;;;;;;;17.67;9.80;;;13.30;92.50;;;;;;5045201;28;20025;-69
2023/06/06 05:40:18;;;;;;;17.25;10.68;;;13.40;92.30;;;;;;5040159;28;20322;-69
2023/06/06 05:42:44;;;;;;;16.42;9.85;;;13.60;92.30;;;;;;5038063;28;20454;-68
2023/06/06 05:45:10;;;;;;;16.10;9.95;;;13.60;91.30;;;;;;5041159;28;20084;-69
2023/06/06 05:47:35;;;;;;;12.80;8.93;;;13.80;91.20;;;;;;5046153;28;20448;-70
2023/06/06 05:50:01;;;;;;;20.27;8.98;;;13.90;90.90;;;;;;5047819;28;20103;-71
2023/06/06 05:52:26;;;;;;;15.93;9.50;;;14.00;90.00;;;;;;5046637;28;20047;-70
2023/06/06 05:55:05;;;;;;;15.50;8.20;;;14.10;89.80;;;;;;5036734;28;20779;-69
2023/06/06 05:57:30;;;;;;;13.63;8.38;;;14.30;89.30;;;;;;5040145;28;20064;-68
2023/06/06 06:00:00;;;;;;;14.50;7.93;;;14.50;88.40;;;;;;5045348;28;20076;-72
2023/06/06 06:02:30;;;;;;;12.80;7.50;;;14.60;88.60;;;;;;5040956;28;20547;-70
2023/06/06 06:04:56;;;;;;;12.85;8.07;;;14.70;87.70;;;;;;5043981;28;20045;-69
2023/06/06 06:07:22;;;;;;;14.90;7.75;;;14.80;87.50;;;;;;5039193;28;20120;-69
2023/06/06 06:09:47;;;;;;;18.98;8.15;;;15.00;87.10;;;;;;5040773;28;20047;-70
2023/06/06 06:12:13;;;;;;;13.27;7.78;;;15.10;86.20;;;;;;5033086;28;20375;-72
2023/06/06 06:14:38;;;;;;;11.07;7.07;;;15.30;85.80;;;;;;5045448;28;20104;-71
2023/06/06 06:17:04;;;;;;;13.00;6.70;;;15.50;85.20;;;;;;5043569;28;20131;-69
2023/06/06 06:19:30;;;;;;;14.50;7.35;;;15.60;85.40;;;;;;5046092;28;20029;-69
2023/06/06 06:21:55;;;;;;;11.95;6.63;;;15.80;84.40;;;;;;5017640;28;20385;-70
2023/06/06 06:24:21;;;;;;;12.35;6.50;;;15.90;83.00;;;;;;5041091;28;20398;-70
2023/06/06 06:26:48;;;;;;;10.65;5.97;;;16.00;83.40;;;;;;5043101;28;20044;-72
2023/06/06 06:29:13;;;;;;;12.75;6.30;;;16.20;82.40;;;;;;5046948;28;20098;-70
2023/06/06 06:31:39;;;;;;;10.43;5.45;;;16.30;81.40;;;;;;5040541;28;20029;-71
2023/06/06 06:34:04;;;;;;;13.27;6.00;;;16.40;80.40;;;;;;5045315;28;20171;-69
2023/06/06 06:36:30;;;;;;;10.80;5.43;;;16.60;81.60;;;;;;5041785;28;20441;-71
2023/06/06 06:38:55;;;;;;;10.15;5.30;;;16.80;80.40;;;;;;5032212;28;20036;-70
2023/06/06 06:41:21;;;;;;;11.13;5.00;;;16.90;80.40;;;;;;5038385;28;20077;-70
2023/06/06 06:43:47;;;;;;;9.02;5.15;;;17.10;80.60;;;;;;5045335;28;20263;-70
2023/06/06 06:46:12;;;;;;;10.88;4.88;;;17.10;78.50;;;;;;5043802;28;20111;-70
2023/06/06 06:48:39;;;;;;;10.93;4.88;;;17.40;78.80;;;;;;5040058;28;20104;-70
2023/06/06 06:51:05;;;;;;;11.07;5.00;;;17.60;77.60;;;;;;5043178;28;20033;-70
2023/06/06 06:53:31;;;;;;;9.95;4.53;;;17.70;76.10;;;;;;5034789;28;20048;-70
2023/06/06 06:55:57;;;;;;;9.05;4.65;;;17.80;76.70;;;;;;5046641;28;20106;-71
2023/06/06 06:58:25;;;;;;;13.43;5.63;;;18.10;77.20;;;;;;5045290;28;20451;-70
2023/06/06 07:00:53;;;;;;;9.65;4.65;;;18.30;75.10;;;;;;5039347;28;20365;-70
2023/06/06 07:03:18;;;;;;;9.65;4.63;;;18.50;74.10;;;;;;5033453;28;20033;-71
2023/06/06 07:05:44;;;;;;;8.60;4.03;;;18.30;73.80;;;;;;5035605;28;20446;-74
2023/06/06 07:08:10;;;;;;;10.07;4.53;;;18.60;73.80;;;;;;5031599;28;20021;-72
2023/06/06 07:10:35;;;;;;;9.80;4.35;;;18.90;74.20;;;;;;5022424;28;20045;-72
2023/06/06 07:13:01;;;;;;;10.15;4.43;;;19.10;71.90;;;;;;5045502;28;20033;-71
2023/06/06 07:15:26;;;;;;;9.13;4.43;;;19.10;72.20;;;;;;5038043;28;20147;-72
2023/06/06 07:17:52;;;;;;;8.20;3.78;;;19.10;70.80;;;;;;5045184;28;20029;-73
2023/06/06 07:20:21;;;;;;;8.80;4.22;;;19.40;73.20;;;;;;5042393;28;20036;-71
2023/06/06 07:22:47;;;;;;;9.55;4.50;;;19.50;70.00;;;;;;5039118;28;20025;-72
2023/06/06 07:25:14;;;;;;;7.57;4.28;;;19.60;70.00;;;;;;5044764;28;20170;-73
2023/06/06 07:27:39;;;;;;;9.80;3.90;;;19.80;69.90;;;;;;5046782;28;20065;-71
2023/06/06 07:30:14;;;;;;;13.02;3.67;;;19.50;69.20;;;;;;5047779;28;20090;-71
2023/06/06 07:32:44;;;;;;;9.57;4.00;;;19.90;70.10;;;;;;5039867;28;20064;-70
2023/06/06 07:35:14;;;;;;;10.43;3.63;;;20.00;68.40;;;;;;5035328;28;20420;-73
2023/06/06 07:37:40;;;;;;;8.95;3.53;;;20.20;68.40;;;;;;5041351;28;20201;-73
2023/06/06 07:40:11;;;;;;;7.32;3.92;;;20.50;68.90;;;;;;5039354;28;20042;-75
2023/06/06 07:42:37;;;;;;;10.00;3.30;;;20.50;66.60;;;;;;5045874;28;20048;-74
2023/06/06 07:45:03;;;;;;;6.47;3.28;;;20.90;68.30;;;;;;5038850;28;20044;-73
2023/06/06 07:47:29;;;;;;;7.63;3.00;;;21.10;67.10;;;;;;5047391;28;20021;-73
2023/06/06 07:49:54;;;;;;;7.05;3.63;;;21.00;65.80;;;;;;5044414;28;20051;-73
2023/06/06 07:52:20;;;;;;;7.53;3.00;;;21.00;63.40;;;;;;5043505;28;20124;-72
2023/06/06 07:54:46;;;;;;;9.90;3.65;;;20.90;64.50;;;;;;5041442;28;20165;-74
2023/06/06 07:57:15;;;;;;;6.88;3.22;;;21.20;66.80;;;;;;5036260;28;20132;-72
2023/06/06 07:59:42;;;;;;;5.13;2.95;;;21.60;65.20;;;;;;5041098;28;20021;-69
2023/06/06 08:02:07;;;;;;;9.77;3.50;;;21.70;62.00;;;;;;5030494;28;20192;-70
2023/06/06 08:04:33;;;;;;;8.45;3.60;;;22.10;63.40;;;;;;5041353;28;20411;-69
2023/06/06 08:06:58;;;;;;;7.07;3.08;;;22.50;62.00;;;;;;5042649;28;20021;-71
2023/06/06 08:09:24;;;;;;;6.22;3.30;;;22.40;60.50;;;;;;5044062;28;20540;-71
2023/06/06 08:11:49;;;;;;;5.60;2.90;;;22.50;59.60;;;;;;5042824;28;20037;-70
2023/06/06 08:14:15;;;;;;;7.38;2.80;;;22.70;61.50;;;;;;5040072;28;20541;-71
2023/06/06 08:16:41;;;;;;;8.15;3.60;;;23.10;60.90;;;;;;5031889;28;20136;-70
2023/06/06 08:19:06;;;;;;;9.38;3.13;;;22.80;57.00;;;;;;5043567;28;20025;-72
2023/06/06 08:21:32;;;;;;;7.15;2.65;;;22.80;59.00;;;;;;5044054;28;20369;-73
2023/06/06 08:23:57;;;;;;;7.97;2.78;;;22.90;56.10;;;;;;5042550;28;20064;-71
2023/06/06 08:26:25;;;;;;;7.60;3.00;;;23.60;55.50;;;;;;5043389;28;20018;-71
2023/06/06 08:28:54;;;;;;;6.68;2.78;;;23.40;55.20;;;;;;5037674;28;20326;-72
2023/06/06 08:31:19;;;;;;;5.10;2.75;;;23.40;55.40;;;;;;5042359;28;20531;-72
2023/06/06 08:33:46;;;;;;;4.75;2.72;;;23.40;55.80;;;;;;5036753;28;20036;-71
2023/06/06 08:36:12;;;;;;;4.78;2.80;;;23.70;54.30;;;;;;5037781;28;20395;-71
2023/06/06 08:38:38;;;;;;;8.00;2.60;;;23.70;54.00;;;;;;5046169;28;20028;-72
2023/06/06 08:41:05;;;;;;;7.93;2.85;;;23.80;53.40;;;;;;5038311;28;20064;-71
2023/06/06 08:43:36;;;;;;;5.97;2.60;;;24.10;54.00;;;;;;5039387;28;20029;-70
2023/06/06 08:46:02;;;;;;;4.97;2.78;;;23.50;52.70;;;;;;5039716;28;20100;-70
2023/06/06 08:48:28;;;;;;;6.65;2.47;;;23.10;53.60;;;;;;5042165;28;20180;-69
2023/06/06 08:50:56;;;;;;;7.93;2.72;;;23.50;54.10;;;;;;5044308;28;20025;-69
2023/06/06 08:53:22;;;;;;;5.07;2.08;;;23.80;52.70;;;;;;5038162;28;20129;-72
2023/06/06 08:55:48;;;;;;;8.23;2.78;;;24.20;52.80;;;;;;5040092;28;20134;-69
2023/06/06 08:58:14;;;;;;;12.50;2.60;;;24.30;51.90;;;;;;5042846;28;20113;-70
2023/06/06 09:00:40;;;;;;;7.10;2.60;;;24.00;52.00;;;;;;5035248;28;20022;-70
2023/06/06 09:03:12;;;;;;;5.80;2.42;;;24.30;52.20;;;;;;5040975;28;20183;-74
2023/06/06 09:05:38;;;;;;;6.30;2.92;;;24.60;51.20;;;;;;5036270;28;20470;-72
2023/06/06 09:08:05;;;;;;;5.32;2.65;;;24.50;53.40;;;;;;5038274;28;20040;-70
2023/06/06 09:10:30;;;;;;;7.13;2.63;;;24.60;52.30;;;;;;5039496;28;20065;-71
2023/06/06 09:12:55;;;;;;;8.23;2.60;;;24.80;52.10;;;;;;5048018;28;20041;-71
2023/06/06 09:15:21;;;;;;;7.15;2.83;;;25.10;50.90;;;;;;5045548;28;20033;-71
2023/06/06 09:17:52;;;;;;;7.13;2.80;;;24.80;50.70;;;;;;5049830;28;20029;-70
2023/06/06 09:20:18;;;;;;;3.78;2.35;;;25.50;49.30;;;;;;5047409;28;20051;-70
2023/06/06 09:22:46;;;;;;;8.43;2.53;;;25.10;49.40;;;;;;5046185;28;20033;-70
2023/06/06 09:25:25;;;;;;;4.63;2.40;;;25.50;50.90;;;;;;5041332;28;20033;-69
2023/06/06 09:28:01;;;;;;;5.18;2.47;;;25.80;50.40;;;;;;5047122;28;20047;-70
2023/06/06 09:30:29;;;;;;;5.72;2.42;;;25.60;51.00;;;;;;5048280;28;20029;-71
2023/06/06 09:33:00;;;;;;;8.13;2.60;;;25.60;48.00;;;;;;5046658;28;20503;-71
2023/06/06 09:35:34;;;;;;;5.88;2.15;;;25.70;47.60;;;;;;5045848;28;20504;-71
2023/06/06 09:38:16;;;;;;;9.57;2.75;;;25.90;49.10;;;;;;5042504;28;20017;-70
2023/06/06 09:40:46;;;;;;;9.05;2.45;;;25.70;46.00;;;;;;5025462;28;20414;-72
2023/06/06 09:43:12;;;;;;;5.80;2.30;;;25.90;48.40;;;;;;5041432;28;20352;-70
2023/06/06 09:45:58;;;;;;;6.05;2.42;;;26.00;47.30;;;;;;5045014;28;20410;-70
2023/06/06 09:48:28;;;;;;;4.45;2.35;;;26.00;47.30;;;;;;5055726;28;20112;-70
2023/06/06 09:50:54;;;;;;;4.68;2.42;;;26.60;48.00;;;;;;5031325;28;20093;-70
2023/06/06 09:53:25;;;;;;;5.18;2.25;;;26.60;44.60;;;;;;5044289;28;20025;-70
2023/06/06 09:55:51;;;;;;;5.18;2.10;;;26.30;45.70;;;;;;5029488;28;20032;-70
2023/06/06 09:58:20;;;;;;;6.90;2.35;;;26.50;44.30;;;;;;5047056;28;20059;-69
2023/06/06 10:00:47;;;;;;;5.30;2.20;;;26.60;42.30;;;;;;5046891;28;20155;-72
2023/06/06 10:03:18;;;;;;;13.07;2.38;;;26.80;42.30;;;;;;5045037;28;20063;-70
2023/06/06 10:05:47;;;;;;;6.70;2.65;;;26.90;45.60;;;;;;5043907;28;20151;-71
2023/06/06 10:08:15;;;;;;;5.55;2.55;;;26.50;43.50;;;;;;5037790;28;20021;-70
2023/06/06 10:10:43;;;;;;;7.80;2.53;;;26.50;45.00;;;;;;5043423;28;20033;-71
2023/06/06 10:13:12;;;;;;;7.43;2.30;;;26.30;45.00;;;;;;5028462;28;20076;-71
2023/06/06 10:15:38;;;;;;;8.18;2.30;;;26.70;46.00;;;;;;5042069;28;20026;-71
2023/06/06 10:18:05;;;;;;;7.07;2.60;;;27.20;44.80;;;;;;5055980;28;20033;-70
2023/06/06 10:20:31;;;;;;;4.22;2.22;;;27.20;45.40;;;;;;5047144;28;20182;-71
2023/06/06 10:23:02;;;;;;;4.18;2.20;;;27.00;43.20;;;;;;5037599;28;20338;-72
2023/06/06 10:25:28;;;;;;;6.03;2.10;;;27.30;40.00;;;;;;5045862;28;20028;-71
2023/06/06 10:28:17;;;;;;;5.47;2.22;;;27.30;43.10;;;;;;5045530;28;20021;-71
2023/06/06 10:30:43;;;;;;;6.43;2.88;;;27.50;42.40;;;;;;5039799;28;20115;-71
2023/06/06 10:33:32;;;;;;;4.10;2.35;;;27.50;42.10;;;;;;5036722;28;20132;-69
2023/06/06 10:36:02;;;;;;;8.27;2.43;;;27.70;44.60;;;;;;5030396;28;20032;-70
2023/06/06 10:38:28;;;;;;;3.47;2.00;;;28.10;42.80;;;;;;5038611;28;20024;-70
2023/06/06 10:40:55;;;;;;;7.90;2.80;;;27.60;41.60;;;;;;5015688;28;20081;-72
2023/06/06 10:43:46;;;;;;;9.07;2.40;;;28.30;41.20;;;;;;5047829;28;20505;-71
2023/06/06 10:46:12;;;;;;;8.10;2.45;;;27.80;40.70;;;;;;5044140;28;20479;-69
2023/06/06 10:48:39;;;;;;;6.90;2.67;;;27.70;41.80;;;;;;5041279;28;20066;-69
2023/06/06 10:51:24;;;;;;;6.95;2.08;;;28.20;41.50;;;;;;5040135;28;20353;-70
2023/06/06 10:54:21;;;;;;;6.78;2.33;;;28.00;40.90;;;;;;5036394;28;20033;-69
2023/06/06 10:56:52;;;;;;;4.38;1.80;;;28.50;42.90;;;;;;5031666;28;20099;-69
2023/06/06 10:59:34;;;;;;;5.25;2.10;;;28.50;41.00;;;;;;5036034;28;20238;-70
2023/06/06 11:02:00;;;;;;;6.45;2.28;;;28.90;40.30;;;;;;5042899;28;20076;-70
2023/06/06 11:04:27;;;;;;;8.05;2.28;;;28.90;40.10;;;;;;5041795;28;20029;-70
2023/06/06 11:07:00;;;;;;;7.80;2.10;;;28.80;39.40;;;;;;5032671;28;20038;-70
2023/06/06 11:09:30;;;;;;;8.02;2.40;;;28.40;38.30;;;;;;5037542;28;20410;-68
2023/06/06 11:12:13;;;;;;;7.22;2.95;;;28.50;39.20;;;;;;5039863;28;20051;-71
2023/06/06 11:15:02;;;;;;;3.72;2.13;;;28.10;42.20;;;;;;5040346;28;20022;-70
2023/06/06 11:17:40;;;;;;;8.38;2.50;;;28.70;38.60;;;;;;5040366;28;20022;-70
2023/06/06 11:20:07;;;;;;;7.53;2.38;;;29.10;38.40;;;;;;5045600;28;20104;-71
2023/06/06 11:22:33;;;;;;;7.80;2.17;;;28.60;37.50;;;;;;5044925;28;20028;-70
2023/06/06 11:24:59;;;;;;;8.38;2.17;;;28.00;38.60;;;;;;5046622;28;20036;-70
2023/06/06 11:27:26;;;;;;;6.63;2.22;;;28.70;38.00;;;;;;5045364;28;20025;-71
2023/06/06 11:29:53;;;;;;;5.28;1.90;;;29.00;38.30;;;;;;5037942;28;20020;-69
2023/06/06 11:32:18;;;;;;;5.57;2.00;;;28.90;39.50;;;;;;5041563;28;20024;-70
2023/06/06 11:34:44;;;;;;;4.38;2.17;;;28.70;37.70;;;;;;5046149;28;20492;-70
2023/06/06 11:37:09;;;;;;;4.13;1.92;;;28.70;37.10;;;;;;5055641;28;20029;-70
2023/06/06 11:39:35;;;;;;;5.18;2.20;;;28.50;36.90;;;;;;5036513;28;20037;-70
2023/06/06 11:42:01;;;;;;;5.93;2.30;;;28.50;37.70;;;;;;5045905;28;20033;-70
2023/06/06 11:44:35;;;;;;;7.28;2.08;;;28.30;37.10;;;;;;5046255;28;20035;-70
2023/06/06 11:47:02;;;;;;;4.93;1.90;;;28.80;37.20;;;;;;5046048;28;20492;-70
2023/06/06 11:49:29;;;;;;;4.88;1.92;;;29.60;39.00;;;;;;5043505;28;20032;-70
2023/06/06 11:52:00;;;;;;;6.07;2.10;;;29.70;35.60;;;;;;5043464;28;20078;-69
2023/06/06 11:54:27;;;;;;;5.35;2.45;;;29.40;37.60;;;;;;5039355;28;20149;-69
2023/06/06 11:56:53;;;;;;;6.85;2.17;;;30.00;35.90;;;;;;5039595;28;20045;-69
2023/06/06 11:59:20;;;;;;;4.50;1.85;;;29.60;34.30;;;;;;5039153;28;20029;-69
2023/06/06 12:01:51;;;;;;;3.97;1.75;;;30.40;35.90;;;;;;5036193;28;20038;-70
2023/06/06 12:04:18;;;;;;;3.38;1.80;;;30.70;36.00;;;;;;5039857;28;20021;-70
2023/06/06 12:06:52;;;;;;;3.78;1.70;;;30.70;32.60;;;;;;5040135;28;20057;-70
2023/06/06 12:09:19;;;;;;;6.63;2.22;;;30.40;33.20;;;;;;5037355;28;20357;-69
2023/06/06 12:12:00;;;;;;;4.28;2.03;;;30.80;33.80;;;;;;5042437;28;20390;-70
2023/06/06 12:14:28;;;;;;;5.13;1.85;;;31.20;33.20;;;;;;5037509;28;20108;-71
2023/06/06 12:17:08;;;;;;;5.55;2.00;;;30.90;33.10;;;;;;5034520;28;20048;-70
2023/06/06 12:19:35;;;;;;;4.53;1.58;;;30.30;34.70;;;;;;5040017;28;20102;-72
2023/06/06 12:22:01;;;;;;;3.58;1.85;;;29.60;35.90;;;;;;5034849;28;20147;-70
2023/06/06 12:24:29;;;;;;;3.45;2.20;;;28.90;35.70;;;;;;5041321;28;20049;-69
2023/06/06 12:26:59;;;;;;;5.53;1.90;;;28.70;35.20;;;;;;5033055;28;20091;-70
2023/06/06 12:29:30;;;;;;;4.55;2.28;;;29.50;35.70;;;;;;5040840;28;20116;-70
2023/06/06 12:32:19;;;;;;;7.30;3.08;;;28.80;35.00;;;;;;5045387;28;20041;-70
2023/06/06 12:34:49;;;;;;;3.17;2.07;;;29.60;35.80;;;;;;5044119;28;20032;-70
2023/06/06 12:37:16;;;;;;;3.63;1.63;;;30.70;35.10;;;;;;5036604;28;20033;-72
2023/06/06 12:39:43;;;;;;;5.00;1.88;;;30.20;32.60;;;;;;5033941;28;20506;-70
2023/06/06 12:42:19;;;;;;;4.55;1.77;;;30.80;34.80;;;;;;5034143;28;20103;-70